Latest Coastal Weather Observations for Hogan Island

IDT60701

Issued at 5:52 am EST Thursday 30 June 2016 (issued every 10 minutes, with the page automatically refreshed every 10 minutes)

About coastal observations | Map of coastal stations | Coastal observations for TAS | Marine services | Other Formats
Station Details ID: 200838 Name: HOGAN ISLAND Lat: -39.22 Lon: 146.98 Height: 116.0 m
Data from the previous 72 hours. | See also: Recent months at Hogan Island
Date/Time
EST
Temp
°C
Wind Pressure Rain since
9am
mm
Weather Cloud Vis
km
Sea
Height
m
Swell
Dir  Spd
kts
Gust
kts
hPa Trend Height
m
Period
s
Dir
30/05:30am 11.3 NNW 18 26 1013.4 - 0.0 - - - - - - -
30/05:22am 11.2 NNW 17 23 1013.6 - 0.0 - - - - - - -
30/05:00am 10.5 NNW 9 12 1013.9 - 0.0 - - - - - - -
30/04:30am 10.6 WNW 8 12 1014.5 - 0.0 - - - - - - -
30/04:00am 10.5 WNW 9 11 1014.8 - 0.0 - - - - - - -
30/03:30am 10.7 WNW 9 11 1015.2 - 0.0 - - - - - - -
30/03:00am 10.8 W 11 13 1015.8 - 0.0 - - - - - - -
30/02:30am 11.3 WNW 14 16 1016.2 - 0.0 - - - - - - -
30/02:00am 10.6 NW 10 12 1016.5 - 0.0 - - - - - - -
30/01:30am 10.9 NW 11 13 1016.9 - 0.0 - - - - - - -
30/01:00am 10.9 NW 11 13 1017.4 - 0.0 - - - - - - -
30/12:30am 10.9 NW 11 13 1017.9 - 0.0 - - - - - - -
30/12:00am 11.4 NNW 8 13 1018.4 - 0.0 - - - - - - -
 
Date/Time
EST
Temp
°C
Wind Pressure Rain since
9am
mm
Weather Cloud Vis
km
Sea
Height
m
Swell
Dir  Spd
kts
Gust
kts
hPa Trend Height
m
Period
s
Dir
29/11:30pm 11.3 N 11 15 1018.4 - 0.0 - - - - - - -
29/11:00pm 10.9 N 12 15 1018.6 - 0.0 - - - - - - -
29/10:30pm 11.3 N 13 16 1018.9 - 0.0 - - - - - - -
29/10:00pm 11.9 NNW 12 17 1019.2 - 0.0 - - - - - - -
29/09:30pm 11.6 N 12 16 1019.4 - 0.0 - - - - - - -
29/09:00pm 11.1 N 11 13 1019.9 - 0.0 - - - - - - -
29/08:30pm 11.4 N 9 12 1020.2 - 0.0 - - - - - - -
29/08:00pm 11.8 NNW 10 13 1020.5 - 0.0 - - - - - - -
29/07:30pm 11.7 NW 12 15 1020.7 - 0.0 - - - - - - -
29/07:00pm 11.9 NW 14 17 1020.9 - 0.0 - - - - - - -
29/06:30pm 11.9 NW 14 18 1021.1 - 0.0 - - - - - - -
29/06:00pm 12.2 WNW 15 20 1021.4 - 0.0 - - - - - - -
29/05:30pm 12.4 WNW 17 21 1021.6 - 0.0 - - - - - - -
29/05:00pm 12.4 NW 12 17 1021.7 - 0.0 - - - - - - -
29/04:30pm 12.4 WNW 14 17 1021.9 - 0.0 - - - - - - -
29/04:00pm 12.9 WNW 19 23 1021.8 - 0.0 - - - - - - -
29/03:30pm 13.1 WNW 22 25 1021.8 - 0.0 - - - - - - -
29/03:00pm 12.9 W 28 32 1021.8 - 0.0 - - - - - - -
29/02:30pm 12.5 W 23 27 1022.1 - 0.0 - - - - - - -
29/02:00pm 12.7 WNW 24 27 1022.3 - 0.0 - - - - - - -
29/01:30pm 12.8 WNW 27 31 1022.3 - 0.0 - - - - - - -
29/01:00pm 13.2 WNW 28 32 1022.6 - 0.0 - - - - - - -
29/12:30pm 12.7 WNW 21 25 1023.3 - 0.0 - - - - - - -
29/12:00pm 12.6 WNW 25 28 1023.5 - 0.0 - - - - - - -
29/11:30am 12.9 WNW 24 26 1024.0 - 0.0 - - - - - - -
29/11:00am 12.3 WNW 25 28 1024.4 - 0.0 - - - - - - -
29/10:30am 12.9 WNW 23 28 1024.6 - 0.0 - - - - - - -
29/10:00am 12.3 WNW 23 28 1024.8 - 0.0 - - - - - - -
29/09:30am 12.1 WNW 24 29 1024.7 - 0.0 - - - - - - -
29/09:00am 11.8 WNW 25 30 1024.6 - 0.0 - - - - - - -
29/08:30am 11.7 WNW 22 25 1024.4 - 0.0 - - - - - - -
29/08:00am 11.9 WNW 21 25 1024.2 - 0.0 - - - - - - -
29/07:30am 12.0 W 25 29 1023.9 - 0.0 - - - - - - -
29/07:00am 12.0 WNW 20 27 1023.7 - 0.0 - - - - - - -
29/06:30am 12.0 WNW 24 28 1023.4 - 0.0 - - - - - - -
29/06:00am 12.1 W 27 31 1022.9 - 0.0 - - - - - - -
29/05:30am 12.0 WNW 30 35 1022.5 - 0.0 - - - - - - -
29/05:00am 12.1 WNW 28 35 1022.3 - 0.0 - - - - - - -
29/04:30am 12.0 WNW 30 35 1022.1 - 0.0 - - - - - - -
29/04:00am 12.0 WNW 30 35 1022.2 - 0.0 - - - - - - -
29/03:30am 11.9 WNW 25 31 1022.5 - 0.0 - - - - - - -
29/03:00am 11.5 WNW 26 29 1022.7 - 0.0 - - - - - - -
29/02:30am 11.8 WNW 26 30 1022.5 - 0.0 - - - - - - -
29/02:00am 12.2 WNW 26 31 1022.3 - 0.0 - - - - - - -
29/01:30am 12.0 WNW 26 31 1022.3 - 0.0 - - - - - - -
29/01:00am 11.7 WNW 26 30 1022.4 - 0.0 - - - - - - -
29/12:30am 11.8 WNW 26 30 1022.6 - 0.0 - - - - - - -
29/12:00am 11.8 WNW 26 29 1023.0 - 0.0 - - - - - - -
 
Date/Time
EST
Temp
°C
Wind Pressure Rain since
9am
mm
Weather Cloud Vis
km
Sea
Height
m
Swell
Dir  Spd
kts
Gust
kts
hPa Trend Height
m
Period
s
Dir
28/11:30pm 11.7 WNW 25 29 1023.0 - 0.0 - - - - - - -
28/11:00pm 11.9 WNW 26 29 1023.2 - 0.0 - - - - - - -
28/10:30pm 11.6 WNW 27 30 1023.0 - 0.0 - - - - - - -
28/10:00pm 12.0 WNW 29 33 1022.8 - 0.0 - - - - - - -
28/09:30pm 12.2 WNW 28 32 1022.8 - 0.0 - - - - - - -
28/09:00pm 12.7 WNW 23 27 1023.0 - 0.0 - - - - - - -
28/08:30pm 12.7 WNW 24 27 1022.6 - 0.0 - - - - - - -
28/08:00pm 12.6 WNW 24 27 1022.5 - 0.0 - - - - - - -
28/07:30pm 12.6 W 28 31 1022.3 - 0.0 - - - - - - -
28/07:00pm 12.6 W 28 33 1022.1 - 0.0 - - - - - - -
28/06:30pm 12.7 W 27 32 1022.1 - 0.0 - - - - - - -
28/06:00pm 12.5 W 32 37 1021.4 - 0.0 - - - - - - -
28/05:30pm 12.3 W 32 37 1021.0 - 0.0 - - - - - - -
28/05:00pm 12.3 W 30 33 1021.0 - 0.0 - - - - - - -
28/04:30pm 12.3 WNW 31 36 1020.7 - 0.0 - - - - - - -
28/04:00pm 12.4 WNW 32 38 1020.4 - 0.0 - - - - - - -
28/03:30pm 12.3 W 30 34 1020.5 - 0.0 - - - - - - -
28/03:00pm 12.6 W 33 37 1020.3 - 0.0 - - - - - - -
28/02:30pm 12.5 W 36 42 1019.7 - 0.0 - - - - - - -
28/02:00pm 12.7 WNW 33 39 1019.6 - 0.0 - - - - - - -
28/01:30pm 12.7 W 34 39 1019.4 - 0.0 - - - - - - -
28/01:00pm 13.0 W 29 36 1019.9 - 0.0 - - - - - - -
28/12:30pm 12.3 WNW 28 33 1020.0 - 0.0 - - - - - - -
28/12:00pm 12.2 WNW 30 35 1020.1 - 0.0 - - - - - - -
28/11:30am 12.2 WNW 31 37 1020.3 - 0.0 - - - - - - -
28/11:00am 12.1 WNW 29 35 1020.4 - 0.0 - - - - - - -
28/10:30am 11.4 WNW 29 34 1020.4 - 0.0 - - - - - - -
28/10:00am 11.7 W 30 35 1020.3 - 0.0 - - - - - - -
28/09:30am 11.4 WNW 30 36 1019.9 - 0.0 - - - - - - -
28/09:00am 11.2 WNW 28 32 1019.8 - 0.2 - - - - - - -
28/08:30am 10.8 WNW 28 32 1019.4 - 0.2 - - - - - - -
28/08:00am 10.7 WNW 27 32 1019.3 - 0.2 - - - - - - -
28/07:30am 10.6 WNW 27 32 1019.1 - 0.2 - - - - - - -
28/07:00am 10.6 WNW 29 35 1018.8 - 0.2 - - - - - - -
28/06:30am 10.5 WNW 26 32 1018.6 - 0.2 - - - - - - -
28/06:00am 10.4 WNW 26 33 1018.6 - 0.2 - - - - - - -
28/05:30am 10.6 WNW 26 31 1017.9 - 0.2 - - - - - - -
28/05:00am 10.2 WNW 26 30 1017.7 - 0.2 - - - - - - -
28/04:30am 10.4 WNW 27 30 1017.6 - 0.2 - - - - - - -
28/04:00am 10.5 WNW 27 31 1017.6 - 0.2 - - - - - - -
28/03:30am 10.1 WNW 26 30 1017.7 - 0.2 - - - - - - -
28/03:00am 10.2 WNW 25 29 1018.1 - 0.2 - - - - - - -
28/02:30am 10.3 WNW 25 30 1017.7 - 0.2 - - - - - - -
28/02:00am 9.9 WNW 25 29 1017.7 - 0.2 - - - - - - -
28/01:30am 10.1 WNW 22 26 1017.7 - 0.2 - - - - - - -
28/01:00am 10.1 WNW 25 30 1017.7 - 0.2 - - - - - - -
28/12:30am 10.2 WNW 25 29 1017.8 - 0.2 - - - - - - -
28/12:00am 10.4 WNW 25 29 1018.0 - 0.2 - - - - - - -
 
Date/Time
EST
Temp
°C
Wind Pressure Rain since
9am
mm
Weather Cloud Vis
km
Sea
Height
m
Swell
Dir  Spd
kts
Gust
kts
hPa Trend Height
m
Period
s
Dir
27/11:30pm 10.3 WNW 25 28 1017.7 - 0.2 - - - - - - -
27/11:00pm 10.6 WNW 22 26 1017.7 - 0.0 - - - - - - -
27/10:30pm 10.4 WNW 22 26 1017.5 - 0.0 - - - - - - -
27/10:00pm 10.2 WNW 19 22 1017.5 - 0.0 - - - - - - -
27/09:30pm 10.0 WNW 25 30 1017.4 - 0.0 - - - - - - -
27/09:00pm 10.7 WNW 20 24 1017.4 - 0.0 - - - - - - -
27/08:30pm 11.1 W 21 24 1017.2 - 0.0 - - - - - - -
27/08:00pm 10.9 W 25 28 1017.1 - 0.0 - - - - - - -
27/07:30pm 11.3 W 27 31 1016.7 - 0.0 - - - - - - -
27/07:00pm 11.3 W 27 29 1016.4 - 0.0 - - - - - - -
27/06:30pm 11.1 W 26 30 1016.1 - 0.0 - - - - - - -
27/06:00pm 11.1 W 26 29 1015.8 - 0.0 - - - - - - -
27/05:30pm 11.0 W 23 28 1015.5 - 0.0 - - - - - - -
27/05:00pm 11.1 W 26 30 1015.2 - 0.0 - - - - - - -
27/04:30pm 10.7 W 19 23 1015.2 - 0.0 - - - - - - -
27/04:00pm 10.5 W 21 24 1014.9 - 0.0 - - - - - - -
27/03:30pm 10.9 W 19 21 1014.7 - 0.0 - - - - - - -
27/03:00pm 10.7 W 22 26 1014.6 - 0.0 - - - - - - -
27/02:30pm 10.7 W 28 32 1013.8 - 0.0 - - - - - - -
27/02:00pm 11.3 W 30 34 1013.5 - 0.0 - - - - - - -
27/01:30pm 11.4 W 32 37 1013.3 - 0.0 - - - - - - -
27/01:00pm 10.7 W 30 35 1013.5 - 0.0 - - - - - - -
27/12:30pm 10.5 W 30 36 1013.5 - 0.0 - - - - - - -
27/12:00pm 10.4 WNW 28 34 1014.1 - 0.0 - - - - - - -
27/11:30am 10.0 WNW 28 34 1014.1 - 0.0 - - - - - - -
27/11:00am 10.2 W 28 32 1014.3 - 0.0 - - - - - - -
27/10:30am 9.8 WNW 25 29 1014.6 - 0.0 - - - - - - -
27/10:00am 9.6 WNW 23 26 1014.5 - 0.0 - - - - - - -
27/09:30am 9.5 WNW 24 30 1014.5 - 0.0 - - - - - - -
27/09:00am 9.9 WNW 24 28 1014.4 - 0.0 - - - - - - -
27/08:30am 9.6 WNW 21 26 1014.2 - 0.0 - - - - - - -
27/08:00am 9.4 WNW 21 27 1014.1 - 0.0 - - - - - - -
27/07:30am 9.0 WNW 18 22 1014.0 - 0.0 - - - - - - -
27/07:00am 9.0 WNW 18 21 1013.9 - 0.0 - - - - - - -
27/06:30am 8.8 WNW 20 24 1013.7 - 0.0 - - - - - - -
27/06:00am 8.6 WNW 19 23 1013.6 - 0.0 - - - - - - -

Other Formats:

Comma delimited format used in spreadsheet applications
http://www.bom.gov.au/fwo/IDT60701/IDT60701.94949.axf

JavaScript Object Notation format (JSON) in row-major order
http://www.bom.gov.au/fwo/IDT60701/IDT60701.94949.json